Weather & Traffic



KLGB 220053Z 16003KT 7SM CLR 17/13 A3005 RMK AO2 SLP174 T01670133


TAF KLGB 211721Z 2118/2218 VRB03KT P6SM SCT015 BKN150 FM212200 30008KT P6SM BKN200 FM220300 VRB03KT P6SM SCT200